createdAt,value
2022-09-27T00:00:11.173Z,0
2022-09-27T00:01:27.450Z,0
2022-09-27T00:02:42.744Z,0
2022-09-27T00:03:59.035Z,0
2022-09-27T00:05:15.330Z,0
2022-09-27T00:06:31.625Z,0
2022-09-27T00:07:47.911Z,0
2022-09-27T00:09:04.236Z,0
2022-09-27T00:10:20.527Z,0
2022-09-27T00:11:36.792Z,0
2022-09-27T00:12:53.127Z,0
2022-09-27T00:14:09.401Z,0
2022-09-27T00:15:25.680Z,0
2022-09-27T00:16:41.979Z,0
2022-09-27T00:17:58.279Z,0
2022-09-27T00:19:13.586Z,0
2022-09-27T00:20:29.889Z,0
2022-09-27T00:21:46.163Z,0
2022-09-27T00:23:02.458Z,0
2022-09-27T00:24:18.755Z,0
2022-09-27T00:25:35.076Z,0
2022-09-27T00:26:51.346Z,0
2022-09-27T00:28:07.667Z,0
2022-09-27T00:29:23.926Z,0
2022-09-27T00:30:40.234Z,0
2022-09-27T00:31:56.541Z,0
2022-09-27T00:33:12.815Z,0
2022-09-27T00:34:29.119Z,0
2022-09-27T00:35:44.413Z,0
2022-09-27T00:37:00.722Z,0
2022-09-27T00:38:17.004Z,0
2022-09-27T00:39:33.308Z,0
2022-09-27T00:40:49.603Z,0
2022-09-27T00:42:05.886Z,0
2022-09-27T00:43:22.000Z,0
2022-09-27T00:44:38.485Z,0
2022-09-27T00:45:54.786Z,0
2022-09-27T00:47:11.084Z,0
2022-09-27T00:48:27.361Z,0
2022-09-27T00:49:43.666Z,0
2022-09-27T00:50:59.942Z,0
2022-09-27T00:52:15.272Z,0
2022-09-27T00:53:31.579Z,0
2022-09-27T00:54:47.843Z,0
2022-09-27T00:56:04.151Z,0
2022-09-27T00:57:20.437Z,0
2022-09-27T00:58:36.725Z,0
2022-09-27T00:59:53.022Z,0
2022-09-27T01:01:09.316Z,0
2022-09-27T01:02:25.639Z,0
2022-09-27T01:03:41.903Z,0
2022-09-27T01:04:58.200Z,0
2022-09-27T01:06:14.512Z,0
2022-09-27T01:07:30.812Z,0
2022-09-27T01:08:46.109Z,0
2022-09-27T01:10:02.394Z,0
2022-09-27T01:11:18.715Z,0
2022-09-27T01:12:34.987Z,0
2022-09-27T01:13:51.274Z,0
2022-09-27T01:15:07.566Z,0
2022-09-27T01:16:23.875Z,0
2022-09-27T01:17:40.157Z,0
2022-09-27T01:18:56.473Z,0
2022-09-27T01:20:12.753Z,0
2022-09-27T01:21:29.035Z,0
2022-09-27T01:22:45.330Z,0
2022-09-27T01:24:01.624Z,0
2022-09-27T01:25:16.938Z,0
2022-09-27T01:26:33.230Z,0
2022-09-27T01:27:49.522Z,0
2022-09-27T01:29:05.857Z,0
2022-09-27T01:30:22.137Z,0
2022-09-27T01:31:38.430Z,0
2022-09-27T01:32:54.732Z,0
2022-09-27T01:34:10.993Z,0
2022-09-27T01:35:27.288Z,0
2022-09-27T01:36:43.581Z,0
2022-09-27T01:37:59.892Z,0
2022-09-27T01:39:16.168Z,0
2022-09-27T01:40:32.474Z,0
2022-09-27T01:41:47.795Z,0
2022-09-27T01:43:04.081Z,0
2022-09-27T01:44:20.362Z,0
2022-09-27T01:45:36.657Z,0
2022-09-27T01:46:52.951Z,0
2022-09-27T01:48:09.252Z,0
2022-09-27T01:49:25.552Z,0
2022-09-27T01:50:41.842Z,0
2022-09-27T01:51:58.145Z,0
2022-09-27T01:53:14.438Z,0
2022-09-27T01:54:30.740Z,0
2022-09-27T01:55:47.018Z,0
2022-09-27T01:57:03.310Z,0
2022-09-27T01:58:18.619Z,0
2022-09-27T01:59:34.922Z,0
2022-09-27T02:00:51.213Z,0
2022-09-27T02:02:07.516Z,0
2022-09-27T02:03:23.798Z,0
2022-09-27T02:04:40.096Z,0
2022-09-27T02:05:56.389Z,0
2022-09-27T02:07:12.704Z,0
2022-09-27T02:08:28.970Z,0
2022-09-27T02:09:45.262Z,0
2022-09-27T02:11:01.572Z,0
2022-09-27T02:12:17.851Z,0
2022-09-27T02:13:34.149Z,0
2022-09-27T02:14:49.470Z,0
2022-09-27T02:16:05.761Z,0
2022-09-27T02:17:22.047Z,0
2022-09-27T02:18:38.344Z,0
2022-09-27T02:19:54.638Z,0
2022-09-27T02:21:10.944Z,0
2022-09-27T02:22:27.250Z,0
2022-09-27T02:23:43.536Z,0
2022-09-27T02:24:59.815Z,0
2022-09-27T02:26:16.120Z,0
2022-09-27T02:27:32.401Z,0
2022-09-27T02:28:48.709Z,0
2022-09-27T02:30:04.988Z,0
2022-09-27T02:31:20.299Z,0
2022-09-27T02:33:52.906Z,0
2022-09-27T02:35:09.203Z,0
2022-09-27T02:36:25.486Z,0
2022-09-27T02:37:41.765Z,0
2022-09-27T02:38:58.071Z,0
2022-09-27T02:40:14.376Z,0
2022-09-27T02:41:30.648Z,0
2022-09-27T02:42:46.955Z,0
2022-09-27T02:44:03.254Z,0
2022-09-27T02:45:19.564Z,0
2022-09-27T02:46:35.849Z,0
2022-09-27T02:47:51.137Z,0
2022-09-27T02:49:07.465Z,0
2022-09-27T02:50:23.761Z,0
2022-09-27T02:51:40.029Z,0
2022-09-27T02:52:56.317Z,0
2022-09-27T02:54:12.620Z,0
2022-09-27T02:55:28.910Z,0
2022-09-27T02:56:45.198Z,0
2022-09-27T02:58:01.498Z,0
2022-09-27T02:59:17.785Z,0
2022-09-27T03:00:34.081Z,0
2022-09-27T03:01:50.413Z,0
2022-09-27T03:03:06.693Z,0
2022-09-27T03:04:21.987Z,0
2022-09-27T03:05:38.280Z,0
2022-09-27T03:06:54.568Z,0
2022-09-27T03:08:10.862Z,0
2022-09-27T03:09:27.156Z,0
2022-09-27T03:10:43.460Z,0
2022-09-27T03:11:59.746Z,0
2022-09-27T03:13:16.048Z,0
2022-09-27T03:14:32.373Z,0
2022-09-27T03:15:48.634Z,0
2022-09-27T03:17:04.924Z,0
2022-09-27T03:18:21.241Z,0
2022-09-27T03:19:37.514Z,0
2022-09-27T03:20:52.821Z,0
2022-09-27T03:22:09.123Z,0
2022-09-27T03:23:25.432Z,0
2022-09-27T03:24:41.730Z,0
2022-09-27T03:25:58.000Z,0
2022-09-27T03:27:14.305Z,0
2022-09-27T03:28:29.605Z,0
2022-09-27T03:29:45.908Z,0
2022-09-27T03:31:02.198Z,0
2022-09-27T03:32:18.500Z,0
2022-09-27T03:33:34.795Z,0
2022-09-27T03:34:51.075Z,0
2022-09-27T03:36:07.369Z,0
2022-09-27T03:37:23.669Z,0
2022-09-27T03:38:39.963Z,0
2022-09-27T03:39:56.292Z,0
2022-09-27T03:41:12.545Z,0
2022-09-27T03:42:28.858Z,0
2022-09-27T03:43:45.150Z,0
2022-09-27T03:45:00.449Z,0
2022-09-27T03:46:16.745Z,0
2022-09-27T03:47:33.036Z,0
2022-09-27T03:48:49.346Z,0
2022-09-27T03:50:05.623Z,0
2022-09-27T03:51:21.926Z,0
2022-09-27T03:52:38.215Z,0
2022-09-27T03:53:54.508Z,0
2022-09-27T03:55:10.816Z,0
2022-09-27T03:56:27.091Z,0
2022-09-27T03:57:43.396Z,0
2022-09-27T03:58:59.690Z,0
2022-09-27T04:00:15.985Z,0
2022-09-27T04:01:31.311Z,0
2022-09-27T04:02:47.592Z,0
2022-09-27T04:04:03.876Z,0
2022-09-27T04:05:20.184Z,0
2022-09-27T04:06:36.501Z,0
2022-09-27T04:07:52.773Z,0
2022-09-27T04:09:09.060Z,0
2022-09-27T04:10:25.372Z,0
2022-09-27T04:11:41.643Z,0
2022-09-27T04:12:57.937Z,0
2022-09-27T04:14:14.236Z,0
2022-09-27T04:15:30.542Z,0
2022-09-27T04:16:46.848Z,0
2022-09-27T04:18:02.142Z,0
2022-09-27T04:19:18.425Z,0
2022-09-27T04:20:34.715Z,0
2022-09-27T04:21:51.012Z,0
2022-09-27T04:23:07.313Z,0
2022-09-27T04:24:23.634Z,0
2022-09-27T04:25:39.900Z,0
2022-09-27T04:26:56.193Z,0
2022-09-27T04:28:12.000Z,0
2022-09-27T04:29:28.801Z,0
2022-09-27T04:30:45.084Z,0
2022-09-27T04:32:01.373Z,0
2022-09-27T04:33:17.656Z,0
2022-09-27T04:34:32.980Z,0
2022-09-27T04:37:05.595Z,0
2022-09-27T04:38:21.865Z,0
2022-09-27T04:39:38.177Z,0
2022-09-27T04:40:54.467Z,0
2022-09-27T04:42:10.708Z,0
2022-09-27T04:43:26.982Z,0
2022-09-27T04:44:43.229Z,0
2022-09-27T04:45:59.470Z,0
2022-09-27T04:47:15.706Z,0
2022-09-27T04:48:32.000Z,0
2022-09-27T04:49:48.270Z,0
2022-09-27T04:51:03.527Z,0
2022-09-27T04:52:19.755Z,0
2022-09-27T04:53:36.001Z,0
2022-09-27T04:54:52.246Z,0
2022-09-27T04:56:08.489Z,0
2022-09-27T04:57:24.715Z,0
2022-09-27T04:58:40.957Z,0
2022-09-27T04:59:57.193Z,0
2022-09-27T05:01:13.441Z,0
2022-09-27T05:02:29.689Z,0
2022-09-27T05:03:45.914Z,0
2022-09-27T05:05:02.164Z,0
2022-09-27T05:06:18.405Z,0
2022-09-27T05:07:33.659Z,0
2022-09-27T05:08:49.908Z,0
2022-09-27T05:10:06.143Z,0
2022-09-27T05:11:22.382Z,0
2022-09-27T05:12:38.622Z,0
2022-09-27T05:13:54.869Z,0
2022-09-27T05:15:11.091Z,0
2022-09-27T05:16:27.348Z,0
2022-09-27T05:17:43.582Z,0
2022-09-27T05:18:59.825Z,0
2022-09-27T05:20:16.068Z,0
2022-09-27T05:21:32.296Z,0
2022-09-27T05:22:48.534Z,0
2022-09-27T05:24:03.794Z,0
2022-09-27T05:25:20.041Z,0
2022-09-27T05:26:36.274Z,0
2022-09-27T05:27:52.514Z,0
2022-09-27T05:29:08.759Z,0
2022-09-27T05:30:24.991Z,0
2022-09-27T05:31:41.233Z,0
2022-09-27T05:32:57.471Z,0
2022-09-27T05:34:13.723Z,0
2022-09-27T05:35:29.958Z,0
2022-09-27T05:36:46.209Z,0
2022-09-27T05:38:02.446Z,0
2022-09-27T05:39:18.692Z,0
2022-09-27T05:40:33.937Z,0
2022-09-27T05:41:50.190Z,5
2022-09-27T05:43:06.430Z,5
2022-09-27T05:44:22.662Z,5
2022-09-27T05:45:38.896Z,5
2022-09-27T05:46:55.145Z,5
2022-09-27T05:48:11.386Z,5
2022-09-27T05:49:27.613Z,11
2022-09-27T05:50:43.854Z,11
2022-09-27T05:52:00.100Z,11
2022-09-27T05:53:16.334Z,11
2022-09-27T05:54:32.586Z,11
2022-09-27T05:55:48.828Z,11
2022-09-27T05:57:04.068Z,11
2022-09-27T05:58:20.312Z,16
2022-09-27T05:59:36.548Z,16
2022-09-27T06:00:52.789Z,16
2022-09-27T06:02:09.039Z,16
2022-09-27T06:03:25.279Z,16
2022-09-27T06:04:41.530Z,16
2022-09-27T06:05:57.751Z,22
2022-09-27T06:07:13.991Z,22
2022-09-27T06:08:30.235Z,28
2022-09-27T06:09:46.475Z,28
2022-09-27T06:11:02.729Z,33
2022-09-27T06:12:18.971Z,33
2022-09-27T06:13:34.218Z,33
2022-09-27T06:14:50.459Z,33
2022-09-27T06:16:06.704Z,28
2022-09-27T06:17:22.935Z,22
2022-09-27T06:18:39.169Z,22
2022-09-27T06:19:55.413Z,28
2022-09-27T06:21:11.653Z,28
2022-09-27T06:22:27.908Z,28
2022-09-27T06:23:44.140Z,28
2022-09-27T06:25:00.372Z,28
2022-09-27T06:26:16.613Z,22
2022-09-27T06:27:32.852Z,28
2022-09-27T06:28:49.109Z,28
2022-09-27T06:30:04.356Z,28
2022-09-27T06:31:20.604Z,33
2022-09-27T06:32:36.849Z,28
2022-09-27T06:33:53.081Z,28
2022-09-27T06:35:09.312Z,28
2022-09-27T06:36:25.567Z,28
2022-09-27T06:37:41.802Z,28
2022-09-27T06:38:58.039Z,28
2022-09-27T06:40:14.277Z,28
2022-09-27T06:41:30.513Z,28
2022-09-27T06:42:46.758Z,22
2022-09-27T06:44:03.004Z,16
2022-09-27T06:45:19.236Z,16
2022-09-27T06:46:34.496Z,16
2022-09-27T06:47:50.750Z,16
2022-09-27T06:49:06.972Z,22
2022-09-27T06:50:23.214Z,22
2022-09-27T06:51:39.456Z,28
2022-09-27T06:52:55.699Z,28
2022-09-27T06:54:11.942Z,33
2022-09-27T06:55:28.179Z,33
2022-09-27T06:56:44.414Z,39
2022-09-27T06:58:00.660Z,39
2022-09-27T06:59:16.895Z,33
2022-09-27T07:00:33.152Z,33
2022-09-27T07:01:49.379Z,33
2022-09-27T07:03:04.638Z,39
2022-09-27T07:04:20.874Z,45
2022-09-27T07:05:37.128Z,50
2022-09-27T07:06:53.364Z,56
2022-09-27T07:08:09.590Z,61
2022-09-27T07:09:25.840Z,67
2022-09-27T07:10:42.072Z,67
2022-09-27T07:11:58.316Z,61
2022-09-27T07:13:14.564Z,61
2022-09-27T07:14:30.797Z,61
2022-09-27T07:15:47.041Z,61
2022-09-27T07:17:03.280Z,61
2022-09-27T07:18:19.527Z,50
2022-09-27T07:19:34.775Z,45
2022-09-27T07:20:51.015Z,45
2022-09-27T07:22:07.254Z,50
2022-09-27T07:23:23.490Z,56
2022-09-27T07:24:39.733Z,56
2022-09-27T07:25:55.981Z,61
2022-09-27T07:27:12.220Z,67
2022-09-27T07:28:28.455Z,61
2022-09-27T07:29:44.708Z,61
2022-09-27T07:31:00.930Z,67
2022-09-27T07:32:17.183Z,67
2022-09-27T07:33:33.416Z,67
2022-09-27T07:34:49.660Z,67
2022-09-27T07:36:04.910Z,67
2022-09-27T07:37:21.165Z,67
2022-09-27T07:38:37.406Z,61
2022-09-27T07:39:53.631Z,56
2022-09-27T07:41:09.871Z,50
2022-09-27T07:42:26.114Z,45
2022-09-27T07:43:41.389Z,45
2022-09-27T07:44:57.618Z,45
2022-09-27T07:46:13.857Z,39
2022-09-27T07:47:30.105Z,33
2022-09-27T07:48:46.344Z,28
2022-09-27T07:50:02.580Z,33
2022-09-27T07:51:18.813Z,39
2022-09-27T07:52:35.068Z,50
2022-09-27T07:53:51.297Z,56
2022-09-27T07:55:07.538Z,61
2022-09-27T07:56:23.777Z,67
2022-09-27T07:57:40.017Z,61
2022-09-27T07:58:56.254Z,61
2022-09-27T08:00:11.511Z,61
2022-09-27T08:01:27.755Z,67
2022-09-27T08:02:43.996Z,67
2022-09-27T08:04:00.241Z,67
2022-09-27T08:05:16.483Z,73
2022-09-27T08:06:32.727Z,73
2022-09-27T08:07:48.954Z,84
2022-09-27T08:09:05.203Z,84
2022-09-27T08:10:21.445Z,95
2022-09-27T08:11:37.676Z,106
2022-09-27T08:12:53.932Z,123
2022-09-27T08:14:10.165Z,146
2022-09-27T08:15:26.406Z,168
2022-09-27T08:16:41.668Z,163
2022-09-27T08:17:57.898Z,174
2022-09-27T08:19:14.142Z,180
2022-09-27T08:20:30.387Z,146
2022-09-27T08:21:46.621Z,129
2022-09-27T08:23:02.856Z,118
2022-09-27T08:24:19.103Z,118
2022-09-27T08:25:35.337Z,123
2022-09-27T08:26:51.582Z,129
2022-09-27T08:28:07.818Z,123
2022-09-27T08:29:24.056Z,106
2022-09-27T08:30:40.299Z,101
2022-09-27T08:31:56.533Z,112
2022-09-27T08:33:11.795Z,123
2022-09-27T08:34:28.044Z,135
2022-09-27T08:35:44.269Z,140
2022-09-27T08:37:00.521Z,151
2022-09-27T08:38:16.756Z,157
2022-09-27T08:39:32.992Z,157
2022-09-27T08:40:49.230Z,157
2022-09-27T08:42:05.474Z,157
2022-09-27T08:43:21.727Z,163
2022-09-27T08:44:37.955Z,157
2022-09-27T08:45:54.202Z,135
2022-09-27T08:47:10.448Z,123
2022-09-27T08:48:26.685Z,112
2022-09-27T08:49:41.943Z,101
2022-09-27T08:50:58.184Z,84
2022-09-27T08:52:14.420Z,73
2022-09-27T08:53:30.664Z,67
2022-09-27T08:54:46.900Z,67
2022-09-27T08:56:03.136Z,73
2022-09-27T08:57:19.375Z,78
2022-09-27T08:58:35.616Z,90
2022-09-27T08:59:51.848Z,95
2022-09-27T09:01:08.105Z,106
2022-09-27T09:02:24.331Z,106
2022-09-27T09:03:40.586Z,118
2022-09-27T09:04:56.811Z,140
2022-09-27T09:06:12.073Z,163
2022-09-27T09:07:28.321Z,185
2022-09-27T09:08:44.554Z,185
2022-09-27T09:10:00.790Z,241
2022-09-27T09:11:17.027Z,241
2022-09-27T09:12:33.281Z,258
2022-09-27T09:13:49.518Z,298
2022-09-27T09:15:05.763Z,371
2022-09-27T09:16:21.999Z,461
2022-09-27T09:17:38.237Z,562
2022-09-27T09:18:54.467Z,573
2022-09-27T09:20:10.722Z,630
2022-09-27T09:21:26.949Z,545
2022-09-27T09:22:42.209Z,551
2022-09-27T09:23:58.453Z,455
2022-09-27T09:25:14.684Z,337
2022-09-27T09:26:30.933Z,275
2022-09-27T09:27:47.177Z,236
2022-09-27T09:29:03.407Z,298
2022-09-27T09:30:19.651Z,185
2022-09-27T09:31:35.887Z,163
2022-09-27T09:32:52.124Z,118
2022-09-27T09:34:08.368Z,78
2022-09-27T09:35:24.620Z,73
2022-09-27T09:36:40.856Z,73
2022-09-27T09:37:57.096Z,67
2022-09-27T09:39:12.349Z,61
2022-09-27T09:40:28.581Z,67
2022-09-27T09:41:44.819Z,67
2022-09-27T09:43:01.071Z,56
2022-09-27T09:44:17.313Z,45
2022-09-27T09:45:33.556Z,45
2022-09-27T09:46:49.795Z,50
2022-09-27T09:48:06.034Z,61
2022-09-27T09:49:22.270Z,67
2022-09-27T09:50:38.517Z,67
2022-09-27T09:51:54.744Z,67
2022-09-27T09:53:10.998Z,61
2022-09-27T09:54:27.236Z,56
2022-09-27T09:55:42.482Z,56
2022-09-27T09:56:58.731Z,61
2022-09-27T09:58:14.963Z,73
2022-09-27T09:59:31.201Z,84
2022-09-27T10:00:47.436Z,78
2022-09-27T10:02:03.678Z,84
2022-09-27T10:03:19.919Z,73
2022-09-27T10:04:36.162Z,73
2022-09-27T10:05:52.402Z,90
2022-09-27T10:07:08.639Z,78
2022-09-27T10:08:24.890Z,73
2022-09-27T10:09:41.122Z,73
2022-09-27T10:10:57.371Z,67
2022-09-27T10:12:12.625Z,90
2022-09-27T10:13:28.869Z,112
2022-09-27T10:14:45.100Z,112
2022-09-27T10:16:01.343Z,95
2022-09-27T10:17:17.581Z,90
2022-09-27T10:18:33.817Z,101
2022-09-27T10:19:50.056Z,101
2022-09-27T10:21:06.299Z,90
2022-09-27T10:22:22.551Z,84
2022-09-27T10:23:38.790Z,84
2022-09-27T10:24:55.021Z,78
2022-09-27T10:26:11.269Z,67
2022-09-27T10:27:27.497Z,61
2022-09-27T10:28:42.764Z,61
2022-09-27T10:29:59.008Z,61
2022-09-27T10:31:15.241Z,50
2022-09-27T10:32:31.000Z,45
2022-09-27T10:33:47.712Z,50
2022-09-27T10:35:03.957Z,45
2022-09-27T10:36:20.210Z,39
2022-09-27T10:37:36.445Z,56
2022-09-27T10:38:52.685Z,67
2022-09-27T10:40:08.918Z,90
2022-09-27T10:41:25.165Z,90
2022-09-27T10:42:41.398Z,84
2022-09-27T10:43:57.646Z,90
2022-09-27T10:45:12.894Z,118
2022-09-27T10:46:29.138Z,146
2022-09-27T10:47:45.376Z,151
2022-09-27T10:49:01.624Z,163
2022-09-27T10:50:17.868Z,174
2022-09-27T10:51:34.107Z,185
2022-09-27T10:52:50.332Z,180
2022-09-27T10:54:06.573Z,163
2022-09-27T10:55:22.816Z,140
2022-09-27T10:56:39.064Z,112
2022-09-27T10:57:55.300Z,84
2022-09-27T10:59:11.542Z,84
2022-09-27T11:00:27.782Z,84
2022-09-27T11:01:43.036Z,67
2022-09-27T11:02:59.275Z,56
2022-09-27T11:04:15.509Z,61
2022-09-27T11:05:31.752Z,56
2022-09-27T11:06:47.998Z,67
2022-09-27T11:08:04.235Z,90
2022-09-27T11:09:20.477Z,101
2022-09-27T11:10:36.713Z,90
2022-09-27T11:11:52.959Z,84
2022-09-27T11:13:09.202Z,67
2022-09-27T11:14:25.436Z,61
2022-09-27T11:15:41.675Z,45
2022-09-27T11:16:57.915Z,39
2022-09-27T11:18:13.176Z,50
2022-09-27T11:19:29.420Z,84
2022-09-27T11:20:45.653Z,112
2022-09-27T11:22:01.897Z,163
2022-09-27T11:23:18.134Z,213
2022-09-27T11:24:34.372Z,236
2022-09-27T11:25:50.615Z,236
2022-09-27T11:27:06.848Z,225
2022-09-27T11:28:23.090Z,213
2022-09-27T11:29:39.344Z,196
2022-09-27T11:30:55.574Z,185
2022-09-27T11:32:11.813Z,163
2022-09-27T11:33:28.066Z,157
2022-09-27T11:34:43.308Z,157
2022-09-27T11:35:59.558Z,151
2022-09-27T11:37:15.791Z,157
2022-09-27T11:38:32.040Z,163
2022-09-27T11:39:48.270Z,168
2022-09-27T11:41:04.510Z,168
2022-09-27T11:42:20.759Z,157
2022-09-27T11:43:36.999Z,151
2022-09-27T11:44:53.244Z,146
2022-09-27T11:46:09.476Z,129
2022-09-27T11:47:25.713Z,118
2022-09-27T11:48:41.957Z,95
2022-09-27T11:49:58.203Z,73
2022-09-27T11:51:13.444Z,45
2022-09-27T11:52:29.688Z,45
2022-09-27T11:53:45.940Z,39
2022-09-27T11:55:02.171Z,39
2022-09-27T11:56:18.422Z,33
2022-09-27T11:57:34.660Z,28
2022-09-27T11:58:49.921Z,22
2022-09-27T12:00:06.154Z,22
2022-09-27T12:01:22.397Z,28
2022-09-27T12:02:38.641Z,28
2022-09-27T12:03:54.877Z,28
2022-09-27T12:05:11.120Z,28
2022-09-27T12:06:27.351Z,28
2022-09-27T12:07:43.605Z,28
2022-09-27T12:08:59.845Z,28
2022-09-27T12:10:16.075Z,28
2022-09-27T12:11:32.308Z,33
2022-09-27T12:12:48.556Z,45
2022-09-27T12:14:04.796Z,50
2022-09-27T12:15:20.058Z,61
2022-09-27T12:16:36.287Z,67
2022-09-27T12:17:52.534Z,78
2022-09-27T12:19:08.773Z,84
2022-09-27T12:20:25.010Z,90
2022-09-27T12:21:41.261Z,90
2022-09-27T12:22:57.499Z,95
2022-09-27T12:24:13.728Z,101
2022-09-27T12:25:29.969Z,101
2022-09-27T12:26:46.222Z,106
2022-09-27T12:28:02.457Z,106
2022-09-27T12:29:18.704Z,112
2022-09-27T12:30:34.931Z,112
2022-09-27T12:31:50.185Z,112
2022-09-27T12:33:06.424Z,118
2022-09-27T12:34:22.672Z,123
2022-09-27T12:35:38.912Z,123
2022-09-27T12:36:55.153Z,123
2022-09-27T12:38:11.385Z,129
2022-09-27T12:39:27.645Z,129
2022-09-27T12:40:43.865Z,135
2022-09-27T12:42:00.115Z,135
2022-09-27T12:43:16.352Z,129
2022-09-27T12:44:32.590Z,129
2022-09-27T12:45:48.835Z,129
2022-09-27T12:47:05.076Z,129
2022-09-27T12:48:20.329Z,129
2022-09-27T12:49:36.576Z,129
2022-09-27T12:50:52.809Z,140
2022-09-27T12:52:09.050Z,151
2022-09-27T12:53:25.293Z,157
2022-09-27T12:54:41.530Z,168
2022-09-27T12:55:57.762Z,180
2022-09-27T12:57:14.010Z,191
2022-09-27T12:58:30.246Z,208
2022-09-27T12:59:46.487Z,219
2022-09-27T13:01:02.742Z,241
2022-09-27T13:02:18.976Z,270
2022-09-27T13:03:35.209Z,303
2022-09-27T13:04:50.466Z,466
2022-09-27T13:06:06.704Z,956
2022-09-27T13:07:22.943Z,753
2022-09-27T13:08:39.180Z,618
2022-09-27T13:09:55.427Z,562
2022-09-27T13:11:11.659Z,787
2022-09-27T13:12:27.901Z,354
2022-09-27T13:13:44.152Z,253
2022-09-27T13:15:00.387Z,427
2022-09-27T13:16:16.633Z,1091
2022-09-27T13:17:32.869Z,196
2022-09-27T13:18:49.122Z,168
2022-09-27T13:20:05.354Z,140
2022-09-27T13:21:20.605Z,118
2022-09-27T13:22:36.840Z,95
2022-09-27T13:23:53.095Z,84
2022-09-27T13:25:09.322Z,67
2022-09-27T13:26:25.560Z,50
2022-09-27T13:27:41.799Z,39
2022-09-27T13:28:58.039Z,39
2022-09-27T13:30:14.278Z,39
2022-09-27T13:31:30.535Z,39
2022-09-27T13:32:46.778Z,45
2022-09-27T13:34:02.997Z,61
2022-09-27T13:35:19.236Z,95
2022-09-27T13:36:35.484Z,101
2022-09-27T13:37:50.742Z,140
2022-09-27T13:39:06.979Z,157
2022-09-27T13:40:23.228Z,157
2022-09-27T13:41:39.472Z,196
2022-09-27T13:42:55.693Z,191
2022-09-27T13:44:11.940Z,185
2022-09-27T13:45:28.187Z,157
2022-09-27T13:46:44.431Z,151
2022-09-27T13:48:00.654Z,163
2022-09-27T13:49:16.899Z,191
2022-09-27T13:50:33.141Z,236
2022-09-27T13:51:49.383Z,230
2022-09-27T13:53:05.619Z,230
2022-09-27T13:54:20.878Z,219
2022-09-27T13:55:37.118Z,208
2022-09-27T13:56:53.362Z,202
2022-09-27T13:58:09.597Z,196
2022-09-27T13:59:25.850Z,219
2022-09-27T14:00:42.078Z,219
2022-09-27T14:01:58.309Z,219
2022-09-27T14:03:14.571Z,208
2022-09-27T14:04:30.792Z,208
2022-09-27T14:05:47.046Z,202
2022-09-27T14:07:03.272Z,191
2022-09-27T14:08:19.523Z,185
2022-09-27T14:09:35.755Z,180
2022-09-27T14:10:51.017Z,135
2022-09-27T14:12:07.251Z,118
2022-09-27T14:13:23.505Z,106
2022-09-27T14:14:39.733Z,95
2022-09-27T14:15:55.978Z,73
2022-09-27T14:17:12.217Z,56
2022-09-27T14:18:28.465Z,45
2022-09-27T14:19:44.687Z,39
2022-09-27T14:21:00.933Z,33
2022-09-27T14:22:17.176Z,22
2022-09-27T14:23:33.415Z,22
2022-09-27T14:24:49.658Z,28
2022-09-27T14:26:05.893Z,45
2022-09-27T14:27:21.159Z,61
2022-09-27T14:28:37.398Z,67
2022-09-27T14:29:53.627Z,118
2022-09-27T14:31:09.868Z,320
2022-09-27T14:32:26.111Z,157
2022-09-27T14:33:42.354Z,241
2022-09-27T14:34:58.594Z,157
2022-09-27T14:36:14.825Z,129
2022-09-27T14:37:31.077Z,123
2022-09-27T14:38:47.325Z,123
2022-09-27T14:40:03.558Z,118
2022-09-27T14:41:19.803Z,106
2022-09-27T14:42:36.027Z,106
2022-09-27T14:43:51.281Z,101
2022-09-27T14:45:07.526Z,95
2022-09-27T14:46:23.772Z,95
2022-09-27T14:47:40.021Z,90
2022-09-27T14:48:56.255Z,84
2022-09-27T14:50:12.491Z,78
2022-09-27T14:51:28.729Z,78
2022-09-27T14:52:44.972Z,84
2022-09-27T14:54:01.212Z,84
2022-09-27T14:55:17.459Z,112
2022-09-27T14:56:33.692Z,112
2022-09-27T14:57:49.936Z,118
2022-09-27T14:59:06.184Z,140
2022-09-27T15:00:21.441Z,151
2022-09-27T15:01:37.675Z,151
2022-09-27T15:02:53.902Z,157
2022-09-27T15:04:10.145Z,168
2022-09-27T15:05:26.394Z,253
2022-09-27T15:06:42.619Z,191
2022-09-27T15:07:58.873Z,376
2022-09-27T15:09:15.106Z,213
2022-09-27T15:10:31.342Z,163
2022-09-27T15:11:47.580Z,135
2022-09-27T15:13:03.819Z,135
2022-09-27T15:14:20.065Z,180
2022-09-27T15:15:36.305Z,331
2022-09-27T15:16:51.557Z,298
2022-09-27T15:18:07.814Z,225
2022-09-27T15:19:24.048Z,163
2022-09-27T15:20:40.281Z,129
2022-09-27T15:21:56.528Z,90
2022-09-27T15:23:12.761Z,84
2022-09-27T15:24:29.003Z,78
2022-09-27T15:25:45.253Z,78
2022-09-27T15:27:01.480Z,73
2022-09-27T15:28:17.714Z,73
2022-09-27T15:29:33.964Z,67
2022-09-27T15:30:50.208Z,67
2022-09-27T15:32:06.445Z,67
2022-09-27T15:33:21.711Z,67
2022-09-27T15:34:37.946Z,67
2022-09-27T15:35:54.187Z,67
2022-09-27T15:38:26.665Z,67
2022-09-27T15:39:42.897Z,67
2022-09-27T15:40:59.149Z,67
2022-09-27T15:42:15.375Z,67
2022-09-27T15:43:31.620Z,67
2022-09-27T15:44:47.863Z,67
2022-09-27T15:46:04.101Z,61
2022-09-27T15:47:20.336Z,61
2022-09-27T15:48:36.587Z,61
2022-09-27T15:49:51.842Z,61
2022-09-27T15:51:08.086Z,61
2022-09-27T15:52:24.320Z,61
2022-09-27T15:53:40.559Z,56
2022-09-27T15:54:56.801Z,56
2022-09-27T15:56:13.046Z,56
2022-09-27T15:57:29.281Z,56
2022-09-27T15:58:45.513Z,50
2022-09-27T16:00:01.769Z,45
2022-09-27T16:01:18.003Z,45
2022-09-27T16:02:34.236Z,45
2022-09-27T16:03:50.479Z,45
2022-09-27T16:05:06.729Z,45
2022-09-27T16:06:21.979Z,39
2022-09-27T16:07:38.222Z,39
2022-09-27T16:08:54.456Z,39
2022-09-27T16:10:10.689Z,39
2022-09-27T16:11:26.947Z,39
2022-09-27T16:12:43.180Z,33
2022-09-27T16:13:58.442Z,33
2022-09-27T16:15:14.677Z,33
2022-09-27T16:16:30.914Z,33
2022-09-27T16:17:47.164Z,33
2022-09-27T16:19:03.392Z,28
2022-09-27T16:20:19.638Z,28
2022-09-27T16:21:35.886Z,28
2022-09-27T16:22:52.109Z,28
2022-09-27T16:24:08.365Z,22
2022-09-27T16:25:24.591Z,22
2022-09-27T16:26:40.842Z,22
2022-09-27T16:27:57.074Z,22
2022-09-27T16:29:13.328Z,22
2022-09-27T16:30:28.586Z,22
2022-09-27T16:31:44.812Z,16
2022-09-27T16:33:01.061Z,16
2022-09-27T16:34:17.307Z,16
2022-09-27T16:35:33.536Z,16
2022-09-27T16:38:06.021Z,11
2022-09-27T16:40:38.494Z,11
2022-09-27T16:41:54.738Z,11
2022-09-27T16:43:10.984Z,11
2022-09-27T16:44:27.224Z,11
2022-09-27T16:45:43.456Z,5
2022-09-27T16:46:58.708Z,5
2022-09-27T16:48:14.958Z,5
2022-09-27T16:49:31.194Z,5
2022-09-27T16:50:47.428Z,5
2022-09-27T16:52:03.681Z,5
2022-09-27T16:53:19.913Z,0
2022-09-27T16:54:36.150Z,0
2022-09-27T16:55:52.405Z,0
2022-09-27T16:57:08.644Z,0
2022-09-27T16:58:24.872Z,0
2022-09-27T16:59:41.126Z,0
2022-09-27T17:00:57.355Z,0
2022-09-27T17:02:13.592Z,0
2022-09-27T17:03:28.854Z,0
2022-09-27T17:04:45.091Z,0
2022-09-27T17:06:01.341Z,0
2022-09-27T17:07:17.576Z,0
2022-09-27T17:08:33.815Z,0
2022-09-27T17:09:50.060Z,0
2022-09-27T17:11:06.294Z,0
2022-09-27T17:12:22.540Z,0
2022-09-27T17:13:38.782Z,0
2022-09-27T17:14:55.019Z,0
2022-09-27T17:16:11.252Z,0
2022-09-27T17:17:27.500Z,0
2022-09-27T17:18:43.726Z,0
2022-09-27T17:19:58.993Z,0
2022-09-27T17:21:15.300Z,0
2022-09-27T17:22:31.586Z,0
2022-09-27T17:23:47.874Z,0
2022-09-27T17:25:04.159Z,0
2022-09-27T17:26:20.456Z,0
2022-09-27T17:27:36.758Z,0
2022-09-27T17:28:53.042Z,0
2022-09-27T17:30:09.349Z,0
2022-09-27T17:31:25.640Z,0
2022-09-27T17:32:41.926Z,0
2022-09-27T17:33:58.234Z,0
2022-09-27T17:35:14.516Z,0
2022-09-27T17:36:29.821Z,0
2022-09-27T17:37:46.126Z,0
2022-09-27T17:39:02.437Z,0
2022-09-27T17:40:18.718Z,0
2022-09-27T17:41:35.018Z,0
2022-09-27T17:42:51.305Z,0
2022-09-27T17:44:07.602Z,0
2022-09-27T17:45:23.895Z,0
2022-09-27T17:46:40.190Z,0
2022-09-27T17:47:56.480Z,0
2022-09-27T17:49:12.788Z,0
2022-09-27T17:50:29.077Z,0
2022-09-27T17:51:45.365Z,0
2022-09-27T17:53:00.686Z,0
2022-09-27T17:54:16.974Z,0
2022-09-27T17:55:33.271Z,0
2022-09-27T17:56:49.564Z,0
2022-09-27T17:58:05.866Z,0
2022-09-27T17:59:22.140Z,0
2022-09-27T18:00:38.448Z,0
2022-09-27T18:01:54.744Z,0
2022-09-27T18:03:11.033Z,0
2022-09-27T18:04:27.325Z,0
2022-09-27T18:05:43.621Z,0
2022-09-27T18:06:59.905Z,0
2022-09-27T18:08:16.204Z,0
2022-09-27T18:09:31.521Z,0
2022-09-27T18:10:47.822Z,0
2022-09-27T18:12:04.102Z,0
2022-09-27T18:13:20.398Z,0
2022-09-27T18:14:36.701Z,0
2022-09-27T18:15:52.985Z,0
2022-09-27T18:17:09.291Z,0
2022-09-27T18:18:25.584Z,0